Time;durP1;ratioP1;P1;durP2;ratioP2;P2;SDS_P1;SDS_P2;PMS_P1;PMS_P2;Temp;Humidity;BMP_temperature;BMP_pressure;BME280_temperature;BME280_humidity;BME280_pressure;Samples;Min_cycle;Max_cycle;Signal;HPM_P1;HPM_P2
2023/06/08 00:00:54;;;;;;;15.83;8.67;;;;;;;;;;5074924;28;20194;-84
2023/06/08 00:03:21;;;;;;;14.63;8.57;;;;;;;;;;5078079;28;20174;-84
2023/06/08 00:05:49;;;;;;;16.23;8.57;;;;;;;;;;5061301;28;20220;-84
2023/06/08 00:08:15;;;;;;;15.93;8.57;;;;;;;;;;5077886;28;20178;-84
2023/06/08 00:10:47;;;;;;;16.00;9.00;;;;;;;;;;5060922;28;20277;-84
2023/06/08 00:13:13;;;;;;;14.30;9.33;;;;;;;;;;5061339;28;20265;-84
2023/06/08 00:15:40;;;;;;;18.17;9.03;;;;;;;;;;5061067;28;20199;-84
2023/06/08 00:18:09;;;;;;;16.30;9.07;;;;;;;;;;5061148;28;20270;-84
2023/06/08 00:20:39;;;;;;;18.37;9.30;;;;;;;;;;5061586;28;20210;-84
2023/06/08 00:23:05;;;;;;;18.60;9.27;;;;;;;;;;5061356;28;20203;-84
2023/06/08 00:25:31;;;;;;;13.80;9.03;;;;;;;;;;5077124;28;20175;-84
2023/06/08 00:27:57;;;;;;;19.03;10.00;;;;;;;;;;5077311;28;20170;-84
2023/06/08 00:30:23;;;;;;;19.83;9.30;;;;;;;;;;5060872;28;20186;-84
2023/06/08 00:32:49;;;;;;;20.83;10.88;;;;;;;;;;5060314;28;20409;-84
2023/06/08 00:35:15;;;;;;;18.10;10.32;;;;;;;;;;5060158;28;20507;-84
2023/06/08 00:37:42;;;;;;;18.50;10.05;;;;;;;;;;5076289;28;20480;-84
2023/06/08 00:40:08;;;;;;;16.80;9.73;;;;;;;;;;5060412;28;20218;-84
2023/06/08 00:42:35;;;;;;;18.13;9.20;;;;;;;;;;5077046;28;20269;-84
2023/06/08 00:45:01;;;;;;;19.40;9.87;;;;;;;;;;5077238;28;20253;-84
2023/06/08 00:47:27;;;;;;;18.60;9.03;;;;;;;;;;5075231;28;20174;-84
2023/06/08 00:49:53;;;;;;;17.38;10.10;;;;;;;;;;5064497;28;20419;-84
2023/06/08 00:52:20;;;;;;;16.30;10.35;;;;;;;;;;5075039;28;20444;-84
2023/06/08 00:54:48;;;;;;;18.05;10.73;;;;;;;;;;5065125;28;20459;-84
2023/06/08 00:57:17;;;;;;;20.35;10.93;;;;;;;;;;5095166;28;20427;-84
2023/06/08 00:59:49;;;;;;;18.63;10.60;;;;;;;;;;5078913;28;20427;-84
2023/06/08 01:02:15;;;;;;;16.83;10.67;;;;;;;;;;5091535;28;20495;-84
2023/06/08 01:04:41;;;;;;;18.63;11.43;;;;;;;;;;5078235;28;20423;-83
2023/06/08 01:07:14;;;;;;;17.60;10.82;;;;;;;;;;5086982;28;20450;-84
2023/06/08 01:09:43;;;;;;;20.85;10.93;;;;;;;;;;5087961;28;20421;-84
2023/06/08 01:12:18;;;;;;;19.50;11.20;;;;;;;;;;5078700;28;20498;-84
2023/06/08 01:15:03;;;;;;;19.58;10.98;;;;;;;;;;5095841;28;20403;-84
2023/06/08 01:17:32;;;;;;;17.55;10.73;;;;;;;;;;5094748;28;20425;-84
2023/06/08 01:20:08;;;;;;;16.45;10.68;;;;;;;;;;5113223;28;20422;-84
2023/06/08 01:22:41;;;;;;;18.13;11.40;;;;;;;;;;5095224;28;20415;-84
2023/06/08 01:25:08;;;;;;;16.98;10.93;;;;;;;;;;5095409;28;20410;-84
2023/06/08 01:27:37;;;;;;;16.75;10.55;;;;;;;;;;5095497;28;20453;-84
2023/06/08 01:30:07;;;;;;;16.88;10.80;;;;;;;;;;5095112;28;20408;-84
2023/06/08 01:32:33;;;;;;;18.27;11.10;;;;;;;;;;5078380;28;20506;-84
2023/06/08 01:34:59;;;;;;;19.80;11.20;;;;;;;;;;5078466;28;20471;-84
2023/06/08 01:37:37;;;;;;;20.30;10.80;;;;;;;;;;5077837;28;20437;-84
2023/06/08 01:40:10;;;;;;;18.83;11.13;;;;;;;;;;5095257;28;20419;-84
2023/06/08 01:42:36;;;;;;;21.27;11.13;;;;;;;;;;5094514;28;20466;-84
2023/06/08 01:45:05;;;;;;;17.97;11.03;;;;;;;;;;5095129;28;20414;-84
2023/06/08 01:47:41;;;;;;;18.23;10.03;;;;;;;;;;5087923;28;20189;-84
2023/06/08 01:50:08;;;;;;;18.50;9.60;;;;;;;;;;5084860;28;20210;-84
2023/06/08 01:52:34;;;;;;;15.60;9.87;;;;;;;;;;5095868;28;20235;-84
2023/06/08 01:55:03;;;;;;;17.53;9.97;;;;;;;;;;5076935;28;20222;-84
2023/06/08 01:57:29;;;;;;;17.77;10.10;;;;;;;;;;5096223;28;20181;-84
2023/06/08 01:59:55;;;;;;;21.23;10.50;;;;;;;;;;5079525;28;20213;-84
2023/06/08 02:02:21;;;;;;;16.77;10.50;;;;;;;;;;5076177;28;20223;-84
2023/06/08 02:04:47;;;;;;;20.30;10.70;;;;;;;;;;5075920;28;20187;-84
2023/06/08 02:07:13;;;;;;;20.57;10.47;;;;;;;;;;5075845;28;20285;-84
2023/06/08 02:09:39;;;;;;;18.20;10.50;;;;;;;;;;5094683;28;20224;-84
2023/06/08 02:12:10;;;;;;;17.57;10.87;;;;;;;;;;5093727;28;20185;-84
2023/06/08 02:14:36;;;;;;;19.37;11.70;;;;;;;;;;5079277;28;20186;-84
2023/06/08 02:17:03;;;;;;;18.60;10.70;;;;;;;;;;5096135;28;20182;-84
2023/06/08 02:19:30;;;;;;;16.70;11.27;;;;;;;;;;5077470;28;20217;-84
2023/06/08 02:21:56;;;;;;;16.17;10.70;;;;;;;;;;5095871;28;20192;-83
2023/06/08 02:24:23;;;;;;;21.67;10.97;;;;;;;;;;5092299;28;20188;-84
2023/06/08 02:26:54;;;;;;;19.87;11.50;;;;;;;;;;5077432;28;20196;-84
2023/06/08 02:29:20;;;;;;;20.33;11.07;;;;;;;;;;5095749;28;20264;-84
2023/06/08 02:31:46;;;;;;;18.20;11.37;;;;;;;;;;5091600;28;20338;-84
2023/06/08 02:34:12;;;;;;;18.93;10.83;;;;;;;;;;5079026;28;20190;-84
2023/06/08 02:36:42;;;;;;;21.83;11.10;;;;;;;;;;5095252;28;20188;-84
2023/06/08 02:39:08;;;;;;;21.33;10.43;;;;;;;;;;5091148;28;20209;-83
2023/06/08 02:41:34;;;;;;;18.23;10.73;;;;;;;;;;5078618;28;20276;-84
2023/06/08 02:44:00;;;;;;;18.17;11.00;;;;;;;;;;5105216;28;20252;-84
2023/06/08 02:46:26;;;;;;;16.57;11.63;;;;;;;;;;5082221;28;20206;-84
2023/06/08 02:48:52;;;;;;;18.37;11.10;;;;;;;;;;5082605;28;20249;-84
2023/06/08 02:51:19;;;;;;;19.87;11.20;;;;;;;;;;5092237;28;20218;-84
2023/06/08 02:53:45;;;;;;;20.90;10.73;;;;;;;;;;5094496;28;20190;-84
2023/06/08 02:56:12;;;;;;;21.60;11.93;;;;;;;;;;5079029;28;20233;-84
2023/06/08 02:58:41;;;;;;;18.73;11.43;;;;;;;;;;5095790;28;20189;-83
2023/06/08 03:01:14;;;;;;;17.30;11.10;;;;;;;;;;5079154;28;20189;-83
2023/06/08 03:03:41;;;;;;;21.07;11.80;;;;;;;;;;5079908;28;20174;-83
2023/06/08 03:06:07;;;;;;;21.83;12.20;;;;;;;;;;5068564;28;20215;-84
2023/06/08 03:08:33;;;;;;;21.90;12.27;;;;;;;;;;5068926;28;20202;-83
2023/06/08 03:10:59;;;;;;;16.67;11.70;;;;;;;;;;5097888;28;20186;-84
2023/06/08 03:13:25;;;;;;;19.93;12.07;;;;;;;;;;5097864;28;20231;-84
2023/06/08 03:15:53;;;;;;;20.38;12.90;;;;;;;;;;5081665;28;20460;-84
2023/06/08 03:18:19;;;;;;;19.45;13.88;;;;;;;;;;5081259;28;20407;-84
2023/06/08 03:20:47;;;;;;;19.23;12.73;;;;;;;;;;5086438;28;20450;-83
2023/06/08 03:23:13;;;;;;;18.75;14.00;;;;;;;;;;5061503;28;20452;-84
2023/06/08 03:25:39;;;;;;;18.30;13.88;;;;;;;;;;5095227;28;20407;-84
2023/06/08 03:28:05;;;;;;;20.45;14.60;;;;;;;;;;5061659;28;20404;-84
2023/06/08 03:30:32;;;;;;;20.58;13.95;;;;;;;;;;5094570;28;20413;-84
2023/06/08 03:32:58;;;;;;;21.85;14.77;;;;;;;;;;5106901;28;20403;-84
2023/06/08 03:35:24;;;;;;;21.73;14.90;;;;;;;;;;5081209;28;20396;-83
2023/06/08 03:37:50;;;;;;;20.88;15.40;;;;;;;;;;5081174;28;20418;-83
2023/06/08 03:40:16;;;;;;;22.40;14.63;;;;;;;;;;5081028;28;20418;-83
2023/06/08 03:42:42;;;;;;;22.05;14.52;;;;;;;;;;5080998;28;20411;-83
2023/06/08 03:45:08;;;;;;;22.98;15.77;;;;;;;;;;5097793;28;20532;-83
2023/06/08 03:47:34;;;;;;;18.52;14.88;;;;;;;;;;5080859;28;20409;-84
2023/06/08 03:50:01;;;;;;;21.83;14.93;;;;;;;;;;5080803;28;20434;-83
2023/06/08 03:52:27;;;;;;;21.88;15.15;;;;;;;;;;5080934;28;20446;-84
2023/06/08 03:54:55;;;;;;;19.13;13.73;;;;;;;;;;5081665;28;20257;-84
2023/06/08 03:57:21;;;;;;;21.53;13.67;;;;;;;;;;5081866;28;20182;-84
2023/06/08 03:59:47;;;;;;;20.23;14.57;;;;;;;;;;5081574;28;20308;-84
2023/06/08 04:02:13;;;;;;;17.90;14.10;;;;;;;;;;5098190;28;20205;-84
2023/06/08 04:04:39;;;;;;;18.53;12.80;;;;;;;;;;5098325;28;20170;-84
2023/06/08 04:07:05;;;;;;;17.87;13.90;;;;;;;;;;5098177;28;20174;-84
2023/06/08 04:09:31;;;;;;;20.63;14.60;;;;;;;;;;5081205;28;20209;-84
2023/06/08 04:11:57;;;;;;;20.00;14.37;;;;;;;;;;5081268;28;20226;-84
2023/06/08 04:14:23;;;;;;;20.93;13.80;;;;;;;;;;5097959;28;20185;-84
2023/06/08 04:16:50;;;;;;;17.97;14.27;;;;;;;;;;5097288;28;20178;-84
2023/06/08 04:19:16;;;;;;;20.00;14.67;;;;;;;;;;5093381;28;20217;-84
2023/06/08 04:21:42;;;;;;;21.67;14.40;;;;;;;;;;5079455;28;20213;-84
2023/06/08 04:24:08;;;;;;;21.23;14.17;;;;;;;;;;5080947;28;20208;-84
2023/06/08 04:26:34;;;;;;;19.17;15.00;;;;;;;;;;5080365;28;20182;-84
2023/06/08 04:29:03;;;;;;;19.03;14.30;;;;;;;;;;5093051;28;20190;-84
2023/06/08 04:31:30;;;;;;;20.03;15.87;;;;;;;;;;5085269;28;20473;-84
2023/06/08 04:33:59;;;;;;;17.80;14.37;;;;;;;;;;5062545;28;20277;-84
2023/06/08 04:36:25;;;;;;;22.40;14.60;;;;;;;;;;5077824;28;20182;-84
2023/06/08 04:38:51;;;;;;;21.20;14.57;;;;;;;;;;5073874;28;20182;-84
2023/06/08 04:41:20;;;;;;;17.33;13.80;;;;;;;;;;5087987;28;20170;-84
2023/06/08 04:43:49;;;;;;;19.10;13.77;;;;;;;;;;5070790;28;20193;-84
2023/06/08 04:46:15;;;;;;;16.33;13.73;;;;;;;;;;5091298;28;20182;-84
2023/06/08 04:48:43;;;;;;;21.40;14.60;;;;;;;;;;5071208;28;20170;-85
2023/06/08 04:51:09;;;;;;;19.00;14.13;;;;;;;;;;5085052;28;20174;-84
2023/06/08 04:53:35;;;;;;;21.17;15.80;;;;;;;;;;5069511;28;20423;-84
2023/06/08 04:56:02;;;;;;;19.87;14.57;;;;;;;;;;5091899;28;20218;-84
2023/06/08 04:58:29;;;;;;;23.23;15.40;;;;;;;;;;5078676;28;20457;-84
2023/06/08 05:00:55;;;;;;;21.47;14.50;;;;;;;;;;5094609;28;20464;-84
2023/06/08 05:03:21;;;;;;;19.30;14.30;;;;;;;;;;5095750;28;20245;-84
2023/06/08 05:05:48;;;;;;;22.23;15.00;;;;;;;;;;5096409;28;20209;-84
2023/06/08 05:08:14;;;;;;;19.57;14.13;;;;;;;;;;5096477;28;20174;-86
2023/06/08 05:10:40;;;;;;;21.27;16.15;;;;;;;;;;5077779;28;20407;-86
2023/06/08 05:13:06;;;;;;;20.43;14.33;;;;;;;;;;5079350;28;20185;-86
2023/06/08 05:15:32;;;;;;;21.60;13.87;;;;;;;;;;5096509;28;20178;-87
2023/06/08 05:17:58;;;;;;;17.83;14.47;;;;;;;;;;5079376;28;20272;-86
2023/06/08 05:20:25;;;;;;;16.90;13.67;;;;;;;;;;5096551;28;20276;-86
2023/06/08 05:22:52;;;;;;;21.50;15.00;;;;;;;;;;5095814;28;20407;-85
2023/06/08 05:25:18;;;;;;;18.50;15.02;;;;;;;;;;5076971;28;20505;-83
2023/06/08 05:27:44;;;;;;;17.73;15.43;;;;;;;;;;5078963;28;20402;-83
2023/06/08 05:30:10;;;;;;;18.67;15.02;;;;;;;;;;5096409;28;20402;-83
2023/06/08 05:32:36;;;;;;;18.50;14.13;;;;;;;;;;5096430;28;20181;-83
2023/06/08 05:35:03;;;;;;;19.02;14.82;;;;;;;;;;5096326;28;20450;-84
2023/06/08 05:37:29;;;;;;;19.63;15.00;;;;;;;;;;5096880;28;20421;-83
2023/06/08 05:39:55;;;;;;;19.88;15.02;;;;;;;;;;5095648;28;20422;-84
2023/06/08 05:42:21;;;;;;;19.70;14.13;;;;;;;;;;5073313;28;20206;-83
2023/06/08 05:44:47;;;;;;;19.27;13.90;;;;;;;;;;5096220;28;20179;-83
2023/06/08 05:47:13;;;;;;;18.00;14.00;;;;;;;;;;5078087;28;20252;-84
2023/06/08 05:49:40;;;;;;;17.83;14.37;;;;;;;;;;5078343;28;20239;-83
2023/06/08 05:52:06;;;;;;;17.53;13.30;;;;;;;;;;5095126;28;20182;-83
2023/06/08 05:54:32;;;;;;;18.17;14.23;;;;;;;;;;5077937;28;20234;-84
2023/06/08 05:57:00;;;;;;;15.63;13.57;;;;;;;;;;5094326;28;20229;-84
2023/06/08 05:59:26;;;;;;;19.30;13.90;;;;;;;;;;5059486;28;20297;-84
2023/06/08 06:01:53;;;;;;;18.40;13.67;;;;;;;;;;5076280;28;20210;-85
2023/06/08 06:04:19;;;;;;;18.77;13.27;;;;;;;;;;5059649;28;20205;-85
2023/06/08 06:06:45;;;;;;;17.77;13.20;;;;;;;;;;5076120;28;20194;-84
2023/06/08 06:09:11;;;;;;;18.67;13.37;;;;;;;;;;5059372;28;20185;-83
2023/06/08 06:11:37;;;;;;;19.57;12.83;;;;;;;;;;5076481;28;20273;-84
2023/06/08 06:14:03;;;;;;;20.47;14.10;;;;;;;;;;5059540;28;20189;-83
2023/06/08 06:16:29;;;;;;;18.63;12.33;;;;;;;;;;5075960;28;20178;-83
2023/06/08 06:18:55;;;;;;;14.90;12.87;;;;;;;;;;5059029;28;20236;-84
2023/06/08 06:21:23;;;;;;;14.63;11.83;;;;;;;;;;5059451;28;20183;-83
2023/06/08 06:23:49;;;;;;;17.30;12.63;;;;;;;;;;5075551;28;20179;-84
2023/06/08 06:26:15;;;;;;;14.23;11.63;;;;;;;;;;5075843;28;20299;-84
2023/06/08 06:28:43;;;;;;;17.50;12.77;;;;;;;;;;5076117;28;20261;-84
2023/06/08 06:31:09;;;;;;;15.50;11.93;;;;;;;;;;5076218;28;20178;-83
2023/06/08 06:33:35;;;;;;;17.23;11.87;;;;;;;;;;5059517;28;20239;-83
2023/06/08 06:36:01;;;;;;;15.23;11.60;;;;;;;;;;5059456;28;20187;-84
2023/06/08 06:38:28;;;;;;;14.60;11.18;;;;;;;;;;5075662;28;20413;-82
2023/06/08 06:40:54;;;;;;;15.98;12.93;;;;;;;;;;5074881;28;20493;-83
2023/06/08 06:43:26;;;;;;;15.30;11.87;;;;;;;;;;5059051;28;20174;-83
2023/06/08 06:45:52;;;;;;;15.63;11.07;;;;;;;;;;5077445;28;20169;-83
2023/06/08 06:48:24;;;;;;;15.53;11.13;;;;;;;;;;5061047;28;20206;-83
2023/06/08 06:50:50;;;;;;;15.03;11.10;;;;;;;;;;5061383;28;20198;-85
2023/06/08 06:53:16;;;;;;;17.83;11.93;;;;;;;;;;5077868;28;20182;-85
2023/06/08 06:55:42;;;;;;;17.37;11.57;;;;;;;;;;5061309;28;20221;-85
2023/06/08 06:58:08;;;;;;;13.43;10.57;;;;;;;;;;5061429;28;20189;-84
2023/06/08 07:00:39;;;;;;;15.67;11.13;;;;;;;;;;5077660;28;20214;-84
2023/06/08 07:03:06;;;;;;;16.00;11.33;;;;;;;;;;5079454;28;20221;-85
2023/06/08 07:05:32;;;;;;;16.37;11.57;;;;;;;;;;5062326;28;20269;-85
2023/06/08 07:07:58;;;;;;;15.33;11.00;;;;;;;;;;5079048;28;20170;-84
2023/06/08 07:10:24;;;;;;;15.77;11.00;;;;;;;;;;5079150;28;20221;-85
2023/06/08 07:12:50;;;;;;;17.00;11.40;;;;;;;;;;5079156;28;20183;-85
2023/06/08 07:15:19;;;;;;;16.27;11.80;;;;;;;;;;5079318;28;20278;-84
2023/06/08 07:17:46;;;;;;;16.20;11.27;;;;;;;;;;5079165;28;20182;-84
2023/06/08 07:20:12;;;;;;;15.87;11.33;;;;;;;;;;5062701;28;20228;-84
2023/06/08 07:22:41;;;;;;;14.83;11.73;;;;;;;;;;5078921;28;20224;-84
2023/06/08 07:25:07;;;;;;;18.53;11.43;;;;;;;;;;5079276;28;20228;-84
2023/06/08 07:27:34;;;;;;;15.37;11.30;;;;;;;;;;5078619;28;20177;-85
2023/06/08 07:30:00;;;;;;;14.40;11.00;;;;;;;;;;5078811;28;20186;-84
2023/06/08 07:32:26;;;;;;;16.77;11.57;;;;;;;;;;5061815;28;20252;-84
2023/06/08 07:34:52;;;;;;;15.70;11.83;;;;;;;;;;5078820;28;20178;-84
2023/06/08 07:37:18;;;;;;;18.40;11.80;;;;;;;;;;5078730;28;20270;-84
2023/06/08 07:39:44;;;;;;;19.57;11.93;;;;;;;;;;5061854;28;20320;-84
2023/06/08 07:42:10;;;;;;;18.03;12.10;;;;;;;;;;5062031;28;20186;-85
2023/06/08 07:44:37;;;;;;;16.67;11.93;;;;;;;;;;5061858;28;20186;-85
2023/06/08 07:47:03;;;;;;;16.80;11.80;;;;;;;;;;5061617;28;20189;-85
2023/06/08 07:49:29;;;;;;;15.33;10.93;;;;;;;;;;5078529;28;20179;-85
2023/06/08 07:51:55;;;;;;;15.40;11.03;;;;;;;;;;5061901;28;20244;-84
2023/06/08 07:54:22;;;;;;;14.13;10.70;;;;;;;;;;5078359;28;20243;-85
2023/06/08 07:56:48;;;;;;;15.70;10.97;;;;;;;;;;5093383;28;20230;-85
2023/06/08 07:59:14;;;;;;;14.90;10.07;;;;;;;;;;5081821;28;20213;-84
2023/06/08 08:01:43;;;;;;;14.37;10.13;;;;;;;;;;5081699;28;20189;-85
2023/06/08 08:04:10;;;;;;;15.57;10.37;;;;;;;;;;5098275;28;20177;-84
2023/06/08 08:06:37;;;;;;;13.03;9.50;;;;;;;;;;5098610;28;20193;-85
2023/06/08 08:09:03;;;;;;;14.87;9.43;;;;;;;;;;5098431;28;20204;-85
2023/06/08 08:11:29;;;;;;;13.60;9.30;;;;;;;;;;5098308;28;20186;-85
2023/06/08 08:13:56;;;;;;;16.90;9.90;;;;;;;;;;5098189;28;20205;-85
2023/06/08 08:16:22;;;;;;;12.47;8.67;;;;;;;;;;5098061;28;20174;-85
2023/06/08 08:18:50;;;;;;;13.73;8.57;;;;;;;;;;5098581;28;20182;-84
2023/06/08 08:21:16;;;;;;;15.95;9.77;;;;;;;;;;5097464;28;20411;-84
2023/06/08 08:23:42;;;;;;;12.80;8.47;;;;;;;;;;5098104;28;20269;-85
2023/06/08 08:26:08;;;;;;;10.90;8.90;;;;;;;;;;5081090;28;20268;-84
2023/06/08 08:28:38;;;;;;;9.93;8.20;;;;;;;;;;5080879;28;20178;-84
2023/06/08 08:31:04;;;;;;;12.70;8.27;;;;;;;;;;5097892;28;20177;-85
2023/06/08 08:33:30;;;;;;;10.73;8.20;;;;;;;;;;5097891;28;20178;-85
2023/06/08 08:35:56;;;;;;;14.87;8.83;;;;;;;;;;5080987;28;20185;-86
2023/06/08 08:38:22;;;;;;;11.73;8.73;;;;;;;;;;5098015;28;20166;-85
2023/06/08 08:40:51;;;;;;;15.97;9.27;;;;;;;;;;5080792;28;20266;-85
2023/06/08 08:43:23;;;;;;;13.70;8.90;;;;;;;;;;5097727;28;20181;-85
2023/06/08 08:45:50;;;;;;;12.97;8.40;;;;;;;;;;5097681;28;20212;-86
2023/06/08 08:48:19;;;;;;;13.57;8.30;;;;;;;;;;5097684;28;20201;-87
2023/06/08 08:50:49;;;;;;;13.80;8.93;;;;;;;;;;5097615;28;20187;-86
2023/06/08 08:53:16;;;;;;;12.70;8.47;;;;;;;;;;5097216;28;20182;-87
2023/06/08 08:55:48;;;;;;;12.63;8.90;;;;;;;;;;5090681;28;20283;-87
2023/06/08 08:58:18;;;;;;;15.37;9.10;;;;;;;;;;5061513;28;20183;-87
2023/06/08 09:00:48;;;;;;;14.30;9.10;;;;;;;;;;5076968;28;20240;-87
2023/06/08 09:03:17;;;;;;;15.27;8.87;;;;;;;;;;5076806;28;20179;-87
2023/06/08 09:05:46;;;;;;;11.33;9.13;;;;;;;;;;5076892;28;20199;-86
2023/06/08 09:08:14;;;;;;;12.50;9.03;;;;;;;;;;5076601;28;20181;-86
2023/06/08 09:10:40;;;;;;;15.13;8.70;;;;;;;;;;5077105;28;20261;-86
2023/06/08 09:13:06;;;;;;;12.93;9.27;;;;;;;;;;5076959;28;20206;-86
2023/06/08 09:15:37;;;;;;;14.83;9.00;;;;;;;;;;5060435;28;20217;-86
2023/06/08 09:18:16;;;;;;;17.00;9.50;;;;;;;;;;5076989;28;20178;-86
2023/06/08 09:20:42;;;;;;;15.10;8.90;;;;;;;;;;5059930;28;20216;-86
2023/06/08 09:23:16;;;;;;;14.67;8.40;;;;;;;;;;5076650;28;20174;-85
2023/06/08 09:25:42;;;;;;;15.87;8.20;;;;;;;;;;5076839;28;20171;-85
2023/06/08 09:28:15;;;;;;;13.57;8.03;;;;;;;;;;5060114;28;20187;-85
2023/06/08 09:30:41;;;;;;;13.63;8.00;;;;;;;;;;5076384;28;20178;-85
2023/06/08 09:33:20;;;;;;;10.73;8.37;;;;;;;;;;5059846;28;20178;-86
2023/06/08 09:35:47;;;;;;;13.37;8.57;;;;;;;;;;5076386;28;20178;-86
2023/06/08 09:38:20;;;;;;;12.17;8.07;;;;;;;;;;5059949;28;20179;-85
2023/06/08 09:40:47;;;;;;;15.47;7.80;;;;;;;;;;5076266;28;20210;-85
2023/06/08 09:43:13;;;;;;;16.60;8.00;;;;;;;;;;5076205;28;20171;-86
2023/06/08 09:45:45;;;;;;;10.23;7.67;;;;;;;;;;5076259;28;20174;-85
2023/06/08 09:48:13;;;;;;;11.83;8.00;;;;;;;;;;5076417;28;20177;-86
2023/06/08 09:50:39;;;;;;;13.18;8.95;;;;;;;;;;5059899;28;20421;-84
2023/06/08 09:53:06;;;;;;;11.52;7.85;;;;;;;;;;5076756;28;20179;-85
2023/06/08 09:55:33;;;;;;;17.27;7.75;;;;;;;;;;5081145;28;20232;-85
2023/06/08 09:58:00;;;;;;;11.48;7.15;;;;;;;;;;5096541;28;20186;-86
2023/06/08 10:00:29;;;;;;;13.80;7.75;;;;;;;;;;5096248;28;20240;-85
2023/06/08 10:03:01;;;;;;;10.70;8.05;;;;;;;;;;5096608;28;20178;-85
2023/06/08 10:05:35;;;;;;;10.90;7.80;;;;;;;;;;5096176;28;20186;-85
2023/06/08 10:08:02;;;;;;;10.30;6.90;;;;;;;;;;5096327;28;20253;-85
2023/06/08 10:10:38;;;;;;;13.00;7.03;;;;;;;;;;5096088;28;20195;-86
2023/06/08 10:13:10;;;;;;;7.65;6.65;;;;;;;;;;5079525;28;20174;-85
2023/06/08 10:15:36;;;;;;;10.20;7.50;;;;;;;;;;5096622;28;20250;-84
2023/06/08 10:18:03;;;;;;;13.57;7.32;;;;;;;;;;5096427;28;20170;-85
2023/06/08 10:20:30;;;;;;;12.30;7.20;;;;;;;;;;5100218;28;20209;-84
2023/06/08 10:22:58;;;;;;;10.05;7.25;;;;;;;;;;5100019;28;20173;-84
2023/06/08 10:25:27;;;;;;;8.57;6.35;;;;;;;;;;5100044;28;20177;-84
2023/06/08 10:28:02;;;;;;;11.23;7.00;;;;;;;;;;5100514;28;20233;-85
2023/06/08 10:30:30;;;;;;;7.90;6.47;;;;;;;;;;5100082;28;20264;-85
2023/06/08 10:33:27;;;;;;;14.27;6.82;;;;;;;;;;5100105;28;20213;-84
2023/06/08 10:36:09;;;;;;;8.18;6.20;;;;;;;;;;5084102;28;20188;-84
2023/06/08 10:38:56;;;;;;;10.35;6.97;;;;;;;;;;5100247;28;20178;-84
2023/06/08 10:41:38;;;;;;;10.13;6.18;;;;;;;;;;5100156;28;20174;-85
2023/06/08 10:44:04;;;;;;;9.73;6.47;;;;;;;;;;5099786;28;20243;-84
2023/06/08 10:46:50;;;;;;;8.63;5.72;;;;;;;;;;5082937;28;20204;-84
2023/06/08 10:49:20;;;;;;;10.60;5.68;;;;;;;;;;5099482;28;20178;-85
2023/06/08 10:51:46;;;;;;;10.02;6.22;;;;;;;;;;5099865;28;20249;-84
2023/06/08 10:54:22;;;;;;;7.43;5.88;;;;;;;;;;5099701;28;20246;-84
2023/06/08 10:56:52;;;;;;;9.10;6.70;;;;;;;;;;5099807;28;20244;-85
2023/06/08 10:59:22;;;;;;;11.43;6.25;;;;;;;;;;5100032;28;20220;-85
2023/06/08 11:01:48;;;;;;;11.63;5.90;;;;;;;;;;5099354;28;20175;-85
2023/06/08 11:04:15;;;;;;;9.68;5.57;;;;;;;;;;5099624;28;20194;-85
2023/06/08 11:06:41;;;;;;;11.07;6.55;;;;;;;;;;5082375;28;20198;-86
2023/06/08 11:09:07;;;;;;;10.55;6.18;;;;;;;;;;5099799;28;20174;-85
2023/06/08 11:11:33;;;;;;;11.25;6.78;;;;;;;;;;5099329;28;20170;-86
2023/06/08 11:14:02;;;;;;;9.45;5.80;;;;;;;;;;5086151;28;20175;-86
2023/06/08 11:16:38;;;;;;;7.50;5.72;;;;;;;;;;5098606;28;20185;-86
2023/06/08 11:19:09;;;;;;;9.00;6.38;;;;;;;;;;5084235;28;20162;-86
2023/06/08 11:21:36;;;;;;;10.60;5.82;;;;;;;;;;5099298;28;20165;-86
2023/06/08 11:24:02;;;;;;;9.73;5.68;;;;;;;;;;5099738;28;20215;-85
2023/06/08 11:26:28;;;;;;;8.43;5.70;;;;;;;;;;5099254;28;20170;-85
2023/06/08 11:28:54;;;;;;;11.20;5.80;;;;;;;;;;5099509;28;20202;-85
2023/06/08 11:31:21;;;;;;;11.90;6.85;;;;;;;;;;5099318;28;20188;-86
2023/06/08 11:33:49;;;;;;;10.60;6.05;;;;;;;;;;5099280;28;20193;-85
2023/06/08 11:36:15;;;;;;;9.43;6.00;;;;;;;;;;5099238;28;20174;-86
2023/06/08 11:38:42;;;;;;;11.10;6.43;;;;;;;;;;5098920;28;20184;-86
2023/06/08 11:41:10;;;;;;;11.73;6.25;;;;;;;;;;5099312;28;20232;-86
2023/06/08 11:43:36;;;;;;;12.55;7.30;;;;;;;;;;5099334;28;20191;-86
2023/06/08 11:46:02;;;;;;;8.35;6.00;;;;;;;;;;5099200;28;20170;-86
2023/06/08 11:48:28;;;;;;;11.45;6.90;;;;;;;;;;5098813;28;20174;-86
2023/06/08 11:50:55;;;;;;;8.85;6.32;;;;;;;;;;5099368;28;20178;-86
2023/06/08 11:53:24;;;;;;;12.60;6.10;;;;;;;;;;5098820;28;20178;-86
2023/06/08 11:55:51;;;;;;;9.35;6.00;;;;;;;;;;5089091;27;20221;-86
2023/06/08 11:58:17;;;;;;;8.48;5.93;;;;;;;;;;5119713;27;20180;-85
2023/06/08 12:00:45;;;;;;;8.30;5.45;;;;;;;;;;5102477;27;20209;-86
2023/06/08 12:03:11;;;;;;;7.22;6.07;;;;;;;;;;5119859;27;20169;-87
2023/06/08 12:05:38;;;;;;;12.23;6.53;;;;;;;;;;5119389;27;20197;-87
2023/06/08 12:08:17;;;;;;;9.40;6.32;;;;;;;;;;5118889;27;20169;-85
2023/06/08 12:10:46;;;;;;;8.80;6.78;;;;;;;;;;5119143;27;20201;-85
2023/06/08 12:13:22;;;;;;;9.85;6.60;;;;;;;;;;5094435;28;20258;-85
2023/06/08 12:15:51;;;;;;;9.55;5.97;;;;;;;;;;5098541;28;20173;-85
2023/06/08 12:18:18;;;;;;;8.98;5.45;;;;;;;;;;5098453;28;20226;-85
2023/06/08 12:20:45;;;;;;;8.07;5.32;;;;;;;;;;5091537;28;20201;-85
2023/06/08 12:23:12;;;;;;;9.18;6.40;;;;;;;;;;5106455;27;20260;-85
2023/06/08 12:25:41;;;;;;;9.07;6.30;;;;;;;;;;5118860;27;20197;-85
2023/06/08 12:28:17;;;;;;;9.30;5.88;;;;;;;;;;5110547;28;20250;-85
2023/06/08 12:30:43;;;;;;;9.82;5.93;;;;;;;;;;5097704;28;20177;-85
2023/06/08 12:33:11;;;;;;;7.53;5.53;;;;;;;;;;5097708;28;20267;-85
2023/06/08 12:35:37;;;;;;;8.05;5.07;;;;;;;;;;5081358;28;20178;-85
2023/06/08 12:38:04;;;;;;;8.35;4.90;;;;;;;;;;5081462;28;20265;-85
2023/06/08 12:40:32;;;;;;;8.63;5.10;;;;;;;;;;5097828;28;20254;-85
2023/06/08 12:42:58;;;;;;;8.10;5.30;;;;;;;;;;5097450;28;20265;-85
2023/06/08 12:45:24;;;;;;;8.77;5.65;;;;;;;;;;5068659;27;20177;-85
2023/06/08 12:47:50;;;;;;;7.03;5.47;;;;;;;;;;5101074;27;20177;-85
2023/06/08 12:50:17;;;;;;;8.27;4.70;;;;;;;;;;5075653;28;20190;-85
2023/06/08 12:52:43;;;;;;;7.82;4.85;;;;;;;;;;5096999;28;20252;-85
2023/06/08 12:55:09;;;;;;;7.97;4.97;;;;;;;;;;5079312;28;20174;-85
2023/06/08 12:57:36;;;;;;;6.80;5.00;;;;;;;;;;5061770;28;20201;-85
2023/06/08 13:00:04;;;;;;;8.57;4.80;;;;;;;;;;5051289;28;20255;-85
2023/06/08 13:02:30;;;;;;;8.40;5.20;;;;;;;;;;5059715;28;20179;-84
2023/06/08 13:04:56;;;;;;;6.63;4.65;;;;;;;;;;5076631;28;20248;-85
2023/06/08 13:07:22;;;;;;;7.47;5.07;;;;;;;;;;5086650;28;20177;-85
2023/06/08 13:09:54;;;;;;;6.68;5.00;;;;;;;;;;5095333;28;20178;-85
2023/06/08 13:12:20;;;;;;;8.02;4.70;;;;;;;;;;5094872;28;20188;-85
2023/06/08 13:14:46;;;;;;;10.13;5.10;;;;;;;;;;5097136;28;20226;-85
2023/06/08 13:17:13;;;;;;;8.57;4.60;;;;;;;;;;5096835;28;20174;-84
2023/06/08 13:19:41;;;;;;;6.15;4.88;;;;;;;;;;5097316;28;20194;-85
2023/06/08 13:22:08;;;;;;;6.10;4.85;;;;;;;;;;5080735;28;20184;-85
2023/06/08 13:24:34;;;;;;;9.02;4.82;;;;;;;;;;5071664;28;20230;-85
2023/06/08 13:27:00;;;;;;;9.15;4.82;;;;;;;;;;5060158;28;20250;-83
2023/06/08 13:29:26;;;;;;;6.88;5.05;;;;;;;;;;5077092;28;20174;-83
2023/06/08 13:31:53;;;;;;;7.30;4.75;;;;;;;;;;5076950;28;20186;-84
2023/06/08 13:34:19;;;;;;;7.38;5.05;;;;;;;;;;5076920;28;20179;-83
2023/06/08 13:36:45;;;;;;;8.52;5.53;;;;;;;;;;5076643;28;20228;-84
2023/06/08 13:39:11;;;;;;;9.75;5.22;;;;;;;;;;5076692;28;20261;-85
2023/06/08 13:41:38;;;;;;;8.07;4.95;;;;;;;;;;5076681;28;20170;-84
2023/06/08 13:44:05;;;;;;;8.27;5.07;;;;;;;;;;5076692;28;20249;-85
2023/06/08 13:46:31;;;;;;;7.05;4.90;;;;;;;;;;5076671;28;20171;-85
2023/06/08 13:48:57;;;;;;;8.20;5.50;;;;;;;;;;5076651;28;20194;-84
2023/06/08 13:51:23;;;;;;;6.50;5.18;;;;;;;;;;5076745;28;20182;-85
2023/06/08 13:53:49;;;;;;;9.77;5.55;;;;;;;;;;5076315;28;20181;-85
2023/06/08 13:56:16;;;;;;;11.25;5.30;;;;;;;;;;5086769;28;20487;-83
2023/06/08 13:58:42;;;;;;;9.48;4.95;;;;;;;;;;5096681;28;20173;-84
2023/06/08 14:01:08;;;;;;;10.65;5.10;;;;;;;;;;5079887;28;20233;-84
2023/06/08 14:03:36;;;;;;;8.65;4.90;;;;;;;;;;5096556;28;20185;-83
2023/06/08 14:06:02;;;;;;;7.45;4.63;;;;;;;;;;5096577;28;20200;-83
2023/06/08 14:08:30;;;;;;;8.05;5.00;;;;;;;;;;5096594;28;20177;-84
2023/06/08 14:10:56;;;;;;;8.77;4.72;;;;;;;;;;5096321;28;20170;-84
2023/06/08 14:13:22;;;;;;;9.10;4.70;;;;;;;;;;5096623;28;20181;-84
2023/06/08 14:15:48;;;;;;;9.73;5.20;;;;;;;;;;5096618;28;20187;-84
2023/06/08 14:18:14;;;;;;;6.78;4.82;;;;;;;;;;5079501;28;20273;-84
2023/06/08 14:20:41;;;;;;;8.05;4.80;;;;;;;;;;5096460;28;20218;-84
2023/06/08 14:23:08;;;;;;;7.25;4.78;;;;;;;;;;5096854;28;20166;-84
2023/06/08 14:25:36;;;;;;;5.97;4.95;;;;;;;;;;5096381;28;20166;-84
2023/06/08 14:28:05;;;;;;;6.85;4.63;;;;;;;;;;5096945;28;20245;-84